sensor_id;sensor_type;location;lat;lon;timestamp;temperature;humidity
31387;DHT22;69978;50.096;8.448;2023-08-17T00:00:02;19.20;99.90
31387;DHT22;69978;50.096;8.448;2023-08-17T00:02:29;19.20;99.90
31387;DHT22;69978;50.096;8.448;2023-08-17T00:04:54;19.10;99.90
31387;DHT22;69978;50.096;8.448;2023-08-17T00:07:20;19.10;99.90
31387;DHT22;69978;50.096;8.448;2023-08-17T00:09:45;19.10;99.90
31387;DHT22;69978;50.096;8.448;2023-08-17T00:12:11;19.10;99.90
31387;DHT22;69978;50.096;8.448;2023-08-17T00:14:36;19.10;99.90
31387;DHT22;69978;50.096;8.448;2023-08-17T00:17:02;19.10;99.90
31387;DHT22;69978;50.096;8.448;2023-08-17T00:19:28;19.10;99.90
31387;DHT22;69978;50.096;8.448;2023-08-17T00:21:54;19.10;99.90
31387;DHT22;69978;50.096;8.448;2023-08-17T00:24:20;19.00;99.90
31387;DHT22;69978;50.096;8.448;2023-08-17T00:26:46;18.90;99.90
31387;DHT22;69978;50.096;8.448;2023-08-17T00:29:11;18.90;99.90
31387;DHT22;69978;50.096;8.448;2023-08-17T00:31:37;18.90;99.90
31387;DHT22;69978;50.096;8.448;2023-08-17T00:34:03;18.80;99.90
31387;DHT22;69978;50.096;8.448;2023-08-17T00:36:28;18.80;99.90
31387;DHT22;69978;50.096;8.448;2023-08-17T00:38:54;18.80;99.90
31387;DHT22;69978;50.096;8.448;2023-08-17T00:41:19;18.80;99.90
31387;DHT22;69978;50.096;8.448;2023-08-17T00:43:45;18.80;99.90
31387;DHT22;69978;50.096;8.448;2023-08-17T00:46:11;18.70;99.90
31387;DHT22;69978;50.096;8.448;2023-08-17T00:48:37;18.70;99.90
31387;DHT22;69978;50.096;8.448;2023-08-17T00:51:03;18.70;99.90
31387;DHT22;69978;50.096;8.448;2023-08-17T00:53:30;18.70;99.90
31387;DHT22;69978;50.096;8.448;2023-08-17T00:55:57;18.60;99.90
31387;DHT22;69978;50.096;8.448;2023-08-17T00:58:23;18.60;99.90
31387;DHT22;69978;50.096;8.448;2023-08-17T01:00:49;18.50;99.90
31387;DHT22;69978;50.096;8.448;2023-08-17T01:03:15;18.50;99.90
31387;DHT22;69978;50.096;8.448;2023-08-17T01:05:42;18.50;99.90
31387;DHT22;69978;50.096;8.448;2023-08-17T01:08:07;18.40;99.90
31387;DHT22;69978;50.096;8.448;2023-08-17T01:11:13;18.40;99.90
31387;DHT22;69978;50.096;8.448;2023-08-17T01:17:19;18.30;99.90
31387;DHT22;69978;50.096;8.448;2023-08-17T01:19:48;18.30;99.90
31387;DHT22;69978;50.096;8.448;2023-08-17T01:22:16;18.30;99.90
31387;DHT22;69978;50.096;8.448;2023-08-17T01:24:43;18.30;99.90
31387;DHT22;69978;50.096;8.448;2023-08-17T01:27:08;18.20;99.90
31387;DHT22;69978;50.096;8.448;2023-08-17T01:29:34;18.20;99.90
31387;DHT22;69978;50.096;8.448;2023-08-17T01:32:12;18.20;99.90
31387;DHT22;69978;50.096;8.448;2023-08-17T01:34:49;18.10;99.90
31387;DHT22;69978;50.096;8.448;2023-08-17T01:37:18;18.20;99.90
31387;DHT22;69978;50.096;8.448;2023-08-17T01:39:49;18.10;99.90
31387;DHT22;69978;50.096;8.448;2023-08-17T01:42:16;18.10;99.90
31387;DHT22;69978;50.096;8.448;2023-08-17T01:44:42;18.10;99.90
31387;DHT22;69978;50.096;8.448;2023-08-17T01:47:08;18.10;99.90
31387;DHT22;69978;50.096;8.448;2023-08-17T01:49:34;18.00;99.90
31387;DHT22;69978;50.096;8.448;2023-08-17T01:52:00;18.00;99.90
31387;DHT22;69978;50.096;8.448;2023-08-17T01:54:26;18.00;99.90
31387;DHT22;69978;50.096;8.448;2023-08-17T01:56:52;18.00;99.90
31387;DHT22;69978;50.096;8.448;2023-08-17T01:59:17;18.00;99.90
31387;DHT22;69978;50.096;8.448;2023-08-17T02:01:43;18.00;99.90
31387;DHT22;69978;50.096;8.448;2023-08-17T02:04:08;18.00;99.90
31387;DHT22;69978;50.096;8.448;2023-08-17T02:06:34;18.00;99.90
31387;DHT22;69978;50.096;8.448;2023-08-17T02:08:59;18.00;99.90
31387;DHT22;69978;50.096;8.448;2023-08-17T02:11:25;18.00;99.90
31387;DHT22;69978;50.096;8.448;2023-08-17T02:13:51;18.00;99.90
31387;DHT22;69978;50.096;8.448;2023-08-17T02:16:16;18.00;99.90
31387;DHT22;69978;50.096;8.448;2023-08-17T02:18:42;18.00;99.90
31387;DHT22;69978;50.096;8.448;2023-08-17T02:21:07;18.00;99.90
31387;DHT22;69978;50.096;8.448;2023-08-17T02:23:34;18.00;99.90
31387;DHT22;69978;50.096;8.448;2023-08-17T02:26:00;18.00;99.90
31387;DHT22;69978;50.096;8.448;2023-08-17T02:28:25;18.00;99.90
31387;DHT22;69978;50.096;8.448;2023-08-17T02:30:58;17.90;99.90
31387;DHT22;69978;50.096;8.448;2023-08-17T02:33:24;18.00;99.90
31387;DHT22;69978;50.096;8.448;2023-08-17T02:35:50;17.90;99.90
31387;DHT22;69978;50.096;8.448;2023-08-17T02:38:16;17.90;99.90
31387;DHT22;69978;50.096;8.448;2023-08-17T02:40:41;17.90;99.90
31387;DHT22;69978;50.096;8.448;2023-08-17T02:43:07;17.90;99.90
31387;DHT22;69978;50.096;8.448;2023-08-17T02:45:34;17.90;99.90
31387;DHT22;69978;50.096;8.448;2023-08-17T02:47:59;17.90;99.90
31387;DHT22;69978;50.096;8.448;2023-08-17T02:50:25;17.90;99.90
31387;DHT22;69978;50.096;8.448;2023-08-17T02:52:51;17.80;99.90
31387;DHT22;69978;50.096;8.448;2023-08-17T02:55:16;17.80;99.90
31387;DHT22;69978;50.096;8.448;2023-08-17T02:57:42;17.80;99.90
31387;DHT22;69978;50.096;8.448;2023-08-17T03:00:08;17.80;99.90
31387;DHT22;69978;50.096;8.448;2023-08-17T03:02:34;17.80;99.90
31387;DHT22;69978;50.096;8.448;2023-08-17T03:04:59;17.70;99.90
31387;DHT22;69978;50.096;8.448;2023-08-17T03:07:25;17.70;99.90
31387;DHT22;69978;50.096;8.448;2023-08-17T03:09:50;17.70;99.90
31387;DHT22;69978;50.096;8.448;2023-08-17T03:12:16;17.70;99.90
31387;DHT22;69978;50.096;8.448;2023-08-17T03:14:41;17.60;99.90
31387;DHT22;69978;50.096;8.448;2023-08-17T03:17:07;17.70;99.90
31387;DHT22;69978;50.096;8.448;2023-08-17T03:19:33;17.60;99.90
31387;DHT22;69978;50.096;8.448;2023-08-17T03:21:58;17.60;99.90
31387;DHT22;69978;50.096;8.448;2023-08-17T03:24:24;17.60;99.90
31387;DHT22;69978;50.096;8.448;2023-08-17T03:26:49;17.60;99.90
31387;DHT22;69978;50.096;8.448;2023-08-17T03:29:21;17.60;99.90
31387;DHT22;69978;50.096;8.448;2023-08-17T03:31:47;17.60;99.90
31387;DHT22;69978;50.096;8.448;2023-08-17T03:34:12;17.50;99.90
31387;DHT22;69978;50.096;8.448;2023-08-17T03:36:38;17.50;99.90
31387;DHT22;69978;50.096;8.448;2023-08-17T03:39:04;17.50;99.90
31387;DHT22;69978;50.096;8.448;2023-08-17T03:41:30;17.50;99.90
31387;DHT22;69978;50.096;8.448;2023-08-17T03:43:56;17.50;99.90
31387;DHT22;69978;50.096;8.448;2023-08-17T03:46:22;17.50;99.90
31387;DHT22;69978;50.096;8.448;2023-08-17T03:48:47;17.50;99.90
31387;DHT22;69978;50.096;8.448;2023-08-17T03:51:13;17.50;99.90
31387;DHT22;69978;50.096;8.448;2023-08-17T03:53:39;17.50;99.90
31387;DHT22;69978;50.096;8.448;2023-08-17T03:56:04;17.40;99.90
31387;DHT22;69978;50.096;8.448;2023-08-17T03:58:30;17.40;99.90
31387;DHT22;69978;50.096;8.448;2023-08-17T04:00:59;17.40;99.90
31387;DHT22;69978;50.096;8.448;2023-08-17T04:03:25;17.40;99.90
31387;DHT22;69978;50.096;8.448;2023-08-17T04:05:52;17.40;99.90
31387;DHT22;69978;50.096;8.448;2023-08-17T04:08:19;17.40;99.90
31387;DHT22;69978;50.096;8.448;2023-08-17T04:10:44;17.40;99.90
31387;DHT22;69978;50.096;8.448;2023-08-17T04:13:11;17.30;99.90
31387;DHT22;69978;50.096;8.448;2023-08-17T04:15:37;17.30;99.90
31387;DHT22;69978;50.096;8.448;2023-08-17T04:18:02;17.30;99.90
31387;DHT22;69978;50.096;8.448;2023-08-17T04:20:28;17.30;99.90
31387;DHT22;69978;50.096;8.448;2023-08-17T04:22:53;17.30;99.90
31387;DHT22;69978;50.096;8.448;2023-08-17T04:25:19;17.30;99.90
31387;DHT22;69978;50.096;8.448;2023-08-17T04:27:45;17.30;99.90
31387;DHT22;69978;50.096;8.448;2023-08-17T04:30:11;17.30;99.90
31387;DHT22;69978;50.096;8.448;2023-08-17T04:32:37;17.20;99.90
31387;DHT22;69978;50.096;8.448;2023-08-17T04:35:03;17.20;99.90
31387;DHT22;69978;50.096;8.448;2023-08-17T04:37:29;17.20;99.90
31387;DHT22;69978;50.096;8.448;2023-08-17T04:39:54;17.20;99.90
31387;DHT22;69978;50.096;8.448;2023-08-17T04:42:20;17.20;99.90
31387;DHT22;69978;50.096;8.448;2023-08-17T04:44:46;17.20;99.90
31387;DHT22;69978;50.096;8.448;2023-08-17T04:47:11;17.20;99.90
31387;DHT22;69978;50.096;8.448;2023-08-17T04:49:37;17.20;99.90
31387;DHT22;69978;50.096;8.448;2023-08-17T04:52:03;17.20;99.90
31387;DHT22;69978;50.096;8.448;2023-08-17T04:54:29;17.20;99.90
31387;DHT22;69978;50.096;8.448;2023-08-17T04:56:55;17.20;99.90
31387;DHT22;69978;50.096;8.448;2023-08-17T04:59:20;17.20;99.90
31387;DHT22;69978;50.096;8.448;2023-08-17T05:01:46;17.20;99.90
31387;DHT22;69978;50.096;8.448;2023-08-17T05:04:11;17.20;99.90
31387;DHT22;69978;50.096;8.448;2023-08-17T05:06:40;17.20;99.90
31387;DHT22;69978;50.096;8.448;2023-08-17T05:09:06;17.20;99.90
31387;DHT22;69978;50.096;8.448;2023-08-17T05:11:32;17.20;99.90
31387;DHT22;69978;50.096;8.448;2023-08-17T05:13:57;17.30;99.90
31387;DHT22;69978;50.096;8.448;2023-08-17T05:16:23;17.30;99.90
31387;DHT22;69978;50.096;8.448;2023-08-17T05:18:48;17.30;99.90
31387;DHT22;69978;50.096;8.448;2023-08-17T05:21:14;17.40;99.90
31387;DHT22;69978;50.096;8.448;2023-08-17T05:23:40;17.40;99.90
31387;DHT22;69978;50.096;8.448;2023-08-17T05:26:10;17.40;99.90
31387;DHT22;69978;50.096;8.448;2023-08-17T05:28:35;17.40;99.90
31387;DHT22;69978;50.096;8.448;2023-08-17T05:31:08;17.40;99.90
31387;DHT22;69978;50.096;8.448;2023-08-17T05:33:33;17.40;99.90
31387;DHT22;69978;50.096;8.448;2023-08-17T05:35:59;17.40;99.90
31387;DHT22;69978;50.096;8.448;2023-08-17T05:38:25;17.50;99.90
31387;DHT22;69978;50.096;8.448;2023-08-17T05:40:57;17.50;99.90
31387;DHT22;69978;50.096;8.448;2023-08-17T05:43:23;17.50;99.90
31387;DHT22;69978;50.096;8.448;2023-08-17T05:45:49;17.50;99.90
31387;DHT22;69978;50.096;8.448;2023-08-17T05:48:15;17.60;99.90
31387;DHT22;69978;50.096;8.448;2023-08-17T05:50:42;17.60;99.90
31387;DHT22;69978;50.096;8.448;2023-08-17T05:53:07;17.70;99.90
31387;DHT22;69978;50.096;8.448;2023-08-17T05:55:33;17.70;99.90
31387;DHT22;69978;50.096;8.448;2023-08-17T05:57:59;17.70;99.90
31387;DHT22;69978;50.096;8.448;2023-08-17T06:00:25;17.80;99.90
31387;DHT22;69978;50.096;8.448;2023-08-17T06:02:51;17.80;99.90
31387;DHT22;69978;50.096;8.448;2023-08-17T06:05:17;17.80;99.90
31387;DHT22;69978;50.096;8.448;2023-08-17T06:07:44;17.90;99.90
31387;DHT22;69978;50.096;8.448;2023-08-17T06:10:10;17.90;99.90
31387;DHT22;69978;50.096;8.448;2023-08-17T06:12:37;17.90;99.90
31387;DHT22;69978;50.096;8.448;2023-08-17T06:15:03;18.00;99.90
31387;DHT22;69978;50.096;8.448;2023-08-17T06:17:29;18.00;99.90
31387;DHT22;69978;50.096;8.448;2023-08-17T06:19:55;18.00;99.90
31387;DHT22;69978;50.096;8.448;2023-08-17T06:22:21;18.10;99.90
31387;DHT22;69978;50.096;8.448;2023-08-17T06:24:46;18.10;99.90
31387;DHT22;69978;50.096;8.448;2023-08-17T06:27:15;18.10;99.90
31387;DHT22;69978;50.096;8.448;2023-08-17T06:29:41;18.20;99.90
31387;DHT22;69978;50.096;8.448;2023-08-17T06:32:09;18.20;99.90
31387;DHT22;69978;50.096;8.448;2023-08-17T06:34:35;18.20;99.90
31387;DHT22;69978;50.096;8.448;2023-08-17T06:37:02;18.30;99.90
31387;DHT22;69978;50.096;8.448;2023-08-17T06:39:28;18.40;99.90
31387;DHT22;69978;50.096;8.448;2023-08-17T06:41:54;18.50;99.90
31387;DHT22;69978;50.096;8.448;2023-08-17T06:44:20;18.50;99.90
31387;DHT22;69978;50.096;8.448;2023-08-17T06:46:46;18.60;99.90
31387;DHT22;69978;50.096;8.448;2023-08-17T06:49:12;18.60;99.90
31387;DHT22;69978;50.096;8.448;2023-08-17T06:51:38;18.60;99.90
31387;DHT22;69978;50.096;8.448;2023-08-17T06:54:05;18.60;99.90
31387;DHT22;69978;50.096;8.448;2023-08-17T06:56:32;18.70;99.90
31387;DHT22;69978;50.096;8.448;2023-08-17T06:58:58;18.80;99.90
31387;DHT22;69978;50.096;8.448;2023-08-17T07:01:23;18.90;99.90
31387;DHT22;69978;50.096;8.448;2023-08-17T07:03:49;19.10;99.90
31387;DHT22;69978;50.096;8.448;2023-08-17T07:06:14;19.30;99.90
31387;DHT22;69978;50.096;8.448;2023-08-17T07:08:40;19.40;99.90
31387;DHT22;69978;50.096;8.448;2023-08-17T07:11:05;19.50;99.90
31387;DHT22;69978;50.096;8.448;2023-08-17T07:13:32;19.60;99.90
31387;DHT22;69978;50.096;8.448;2023-08-17T07:15:57;19.60;99.90
31387;DHT22;69978;50.096;8.448;2023-08-17T07:18:23;19.70;99.90
31387;DHT22;69978;50.096;8.448;2023-08-17T07:20:48;19.80;99.90
31387;DHT22;69978;50.096;8.448;2023-08-17T07:23:15;19.90;99.90
31387;DHT22;69978;50.096;8.448;2023-08-17T07:25:40;20.00;99.90
31387;DHT22;69978;50.096;8.448;2023-08-17T07:28:06;20.00;99.90
31387;DHT22;69978;50.096;8.448;2023-08-17T07:30:32;20.00;99.90
31387;DHT22;69978;50.096;8.448;2023-08-17T07:32:57;20.10;99.90
31387;DHT22;69978;50.096;8.448;2023-08-17T07:35:23;20.10;99.90
31387;DHT22;69978;50.096;8.448;2023-08-17T07:37:49;20.10;99.90
31387;DHT22;69978;50.096;8.448;2023-08-17T07:40:14;20.10;99.90
31387;DHT22;69978;50.096;8.448;2023-08-17T07:42:40;20.20;99.90
31387;DHT22;69978;50.096;8.448;2023-08-17T07:45:06;20.30;99.90
31387;DHT22;69978;50.096;8.448;2023-08-17T07:47:34;20.20;99.90
31387;DHT22;69978;50.096;8.448;2023-08-17T07:50:01;20.30;99.90
31387;DHT22;69978;50.096;8.448;2023-08-17T07:52:26;20.30;99.90
31387;DHT22;69978;50.096;8.448;2023-08-17T07:54:52;20.30;99.90
31387;DHT22;69978;50.096;8.448;2023-08-17T07:57:17;20.30;99.90
31387;DHT22;69978;50.096;8.448;2023-08-17T07:59:43;20.30;99.90
31387;DHT22;69978;50.096;8.448;2023-08-17T08:02:11;20.40;99.90
31387;DHT22;69978;50.096;8.448;2023-08-17T08:04:37;20.40;99.90
31387;DHT22;69978;50.096;8.448;2023-08-17T08:07:02;20.40;99.90
31387;DHT22;69978;50.096;8.448;2023-08-17T08:09:28;20.50;99.90
31387;DHT22;69978;50.096;8.448;2023-08-17T08:11:54;20.50;99.90
31387;DHT22;69978;50.096;8.448;2023-08-17T08:14:19;20.50;99.90
31387;DHT22;69978;50.096;8.448;2023-08-17T08:16:45;20.40;99.90
31387;DHT22;69978;50.096;8.448;2023-08-17T08:19:11;20.50;99.90
31387;DHT22;69978;50.096;8.448;2023-08-17T08:21:36;20.60;99.90
31387;DHT22;69978;50.096;8.448;2023-08-17T08:24:02;20.60;99.90
31387;DHT22;69978;50.096;8.448;2023-08-17T08:26:27;20.50;99.90
31387;DHT22;69978;50.096;8.448;2023-08-17T08:28:53;20.60;99.90
31387;DHT22;69978;50.096;8.448;2023-08-17T08:31:19;20.60;99.90
31387;DHT22;69978;50.096;8.448;2023-08-17T08:33:44;20.50;99.90
31387;DHT22;69978;50.096;8.448;2023-08-17T08:36:10;20.50;99.90
31387;DHT22;69978;50.096;8.448;2023-08-17T08:38:36;20.40;99.90
31387;DHT22;69978;50.096;8.448;2023-08-17T08:41:02;20.50;99.90
31387;DHT22;69978;50.096;8.448;2023-08-17T08:43:28;20.50;99.90
31387;DHT22;69978;50.096;8.448;2023-08-17T08:45:54;20.50;99.90
31387;DHT22;69978;50.096;8.448;2023-08-17T08:48:26;20.60;99.90
31387;DHT22;69978;50.096;8.448;2023-08-17T08:50:55;20.50;99.90
31387;DHT22;69978;50.096;8.448;2023-08-17T08:53:27;20.60;99.90
31387;DHT22;69978;50.096;8.448;2023-08-17T08:56:03;20.60;99.90
31387;DHT22;69978;50.096;8.448;2023-08-17T08:58:29;20.70;99.90
31387;DHT22;69978;50.096;8.448;2023-08-17T09:00:57;20.90;99.90
31387;DHT22;69978;50.096;8.448;2023-08-17T09:03:24;21.00;99.90
31387;DHT22;69978;50.096;8.448;2023-08-17T09:05:51;21.10;99.90
31387;DHT22;69978;50.096;8.448;2023-08-17T09:08:21;21.10;99.90
31387;DHT22;69978;50.096;8.448;2023-08-17T09:10:47;21.10;99.90
31387;DHT22;69978;50.096;8.448;2023-08-17T09:13:13;21.30;99.90
31387;DHT22;69978;50.096;8.448;2023-08-17T09:15:39;21.50;99.90
31387;DHT22;69978;50.096;8.448;2023-08-17T09:18:07;21.60;99.90
31387;DHT22;69978;50.096;8.448;2023-08-17T09:23:26;21.90;99.90
31387;DHT22;69978;50.096;8.448;2023-08-17T09:25:51;22.00;99.90
31387;DHT22;69978;50.096;8.448;2023-08-17T09:28:20;22.10;99.90
31387;DHT22;69978;50.096;8.448;2023-08-17T09:31:04;22.20;99.90
31387;DHT22;69978;50.096;8.448;2023-08-17T09:33:30;22.50;99.90
31387;DHT22;69978;50.096;8.448;2023-08-17T09:35:58;22.90;99.90
31387;DHT22;69978;50.096;8.448;2023-08-17T09:38:24;23.30;99.90
31387;DHT22;69978;50.096;8.448;2023-08-17T09:40:50;23.60;99.90
31387;DHT22;69978;50.096;8.448;2023-08-17T09:43:18;23.90;99.90
31387;DHT22;69978;50.096;8.448;2023-08-17T09:45:45;24.30;99.90
31387;DHT22;69978;50.096;8.448;2023-08-17T09:48:21;24.50;99.90
31387;DHT22;69978;50.096;8.448;2023-08-17T09:50:48;25.00;99.90
31387;DHT22;69978;50.096;8.448;2023-08-17T09:53:18;25.40;99.90
31387;DHT22;69978;50.096;8.448;2023-08-17T09:55:51;25.70;99.90
31387;DHT22;69978;50.096;8.448;2023-08-17T09:58:16;25.90;99.90
31387;DHT22;69978;50.096;8.448;2023-08-17T10:00:47;25.90;99.90
31387;DHT22;69978;50.096;8.448;2023-08-17T10:03:15;26.00;99.90
31387;DHT22;69978;50.096;8.448;2023-08-17T10:05:42;26.10;99.90
31387;DHT22;69978;50.096;8.448;2023-08-17T10:08:10;26.20;99.90
31387;DHT22;69978;50.096;8.448;2023-08-17T10:10:40;26.20;99.90
31387;DHT22;69978;50.096;8.448;2023-08-17T10:15:45;26.30;99.90
31387;DHT22;69978;50.096;8.448;2023-08-17T10:18:16;26.30;99.90
31387;DHT22;69978;50.096;8.448;2023-08-17T10:20:45;26.50;99.90
31387;DHT22;69978;50.096;8.448;2023-08-17T10:23:17;26.60;99.90
31387;DHT22;69978;50.096;8.448;2023-08-17T10:25:44;26.70;99.90
31387;DHT22;69978;50.096;8.448;2023-08-17T10:28:11;26.90;99.90
31387;DHT22;69978;50.096;8.448;2023-08-17T10:30:37;27.00;99.90
31387;DHT22;69978;50.096;8.448;2023-08-17T10:33:06;27.10;99.90
31387;DHT22;69978;50.096;8.448;2023-08-17T10:35:33;27.20;99.90
31387;DHT22;69978;50.096;8.448;2023-08-17T10:37:59;27.40;99.90
31387;DHT22;69978;50.096;8.448;2023-08-17T10:40:33;27.40;99.90
31387;DHT22;69978;50.096;8.448;2023-08-17T10:42:59;27.50;99.90
31387;DHT22;69978;50.096;8.448;2023-08-17T10:48:00;27.70;99.90
31387;DHT22;69978;50.096;8.448;2023-08-17T10:51:00;27.70;99.90
31387;DHT22;69978;50.096;8.448;2023-08-17T10:53:26;27.90;99.90
31387;DHT22;69978;50.096;8.448;2023-08-17T10:55:57;27.90;99.90
31387;DHT22;69978;50.096;8.448;2023-08-17T10:58:23;27.90;99.90
31387;DHT22;69978;50.096;8.448;2023-08-17T11:00:54;28.00;99.90
31387;DHT22;69978;50.096;8.448;2023-08-17T11:03:21;28.20;99.90
31387;DHT22;69978;50.096;8.448;2023-08-17T11:05:52;28.40;99.90
31387;DHT22;69978;50.096;8.448;2023-08-17T11:08:33;28.50;99.90
31387;DHT22;69978;50.096;8.448;2023-08-17T11:13:42;28.70;99.90
31387;DHT22;69978;50.096;8.448;2023-08-17T11:16:10;28.70;99.90
31387;DHT22;69978;50.096;8.448;2023-08-17T11:18:36;28.70;99.90
31387;DHT22;69978;50.096;8.448;2023-08-17T11:21:04;28.90;99.90
31387;DHT22;69978;50.096;8.448;2023-08-17T11:23:30;29.00;99.90
31387;DHT22;69978;50.096;8.448;2023-08-17T11:25:56;29.00;99.90
31387;DHT22;69978;50.096;8.448;2023-08-17T11:28:23;29.20;99.90
31387;DHT22;69978;50.096;8.448;2023-08-17T11:31:02;29.40;99.90
31387;DHT22;69978;50.096;8.448;2023-08-17T11:33:30;29.50;99.90
31387;DHT22;69978;50.096;8.448;2023-08-17T11:36:00;29.60;99.90
31387;DHT22;69978;50.096;8.448;2023-08-17T11:38:30;29.30;99.90
31387;DHT22;69978;50.096;8.448;2023-08-17T11:40:58;29.40;99.90
31387;DHT22;69978;50.096;8.448;2023-08-17T11:43:24;29.50;99.90
31387;DHT22;69978;50.096;8.448;2023-08-17T11:45:51;29.50;99.90
31387;DHT22;69978;50.096;8.448;2023-08-17T11:48:19;29.70;99.90
31387;DHT22;69978;50.096;8.448;2023-08-17T11:50:45;29.80;99.90
31387;DHT22;69978;50.096;8.448;2023-08-17T11:53:11;29.90;99.90
31387;DHT22;69978;50.096;8.448;2023-08-17T11:55:36;30.10;99.90
31387;DHT22;69978;50.096;8.448;2023-08-17T11:58:03;30.20;99.90
31387;DHT22;69978;50.096;8.448;2023-08-17T12:00:39;30.30;99.90
31387;DHT22;69978;50.096;8.448;2023-08-17T12:03:05;30.50;99.90
31387;DHT22;69978;50.096;8.448;2023-08-17T12:05:31;30.60;99.90
31387;DHT22;69978;50.096;8.448;2023-08-17T12:07:59;30.70;99.90
31387;DHT22;69978;50.096;8.448;2023-08-17T12:10:28;30.90;99.90
31387;DHT22;69978;50.096;8.448;2023-08-17T12:12:58;30.90;99.90
31387;DHT22;69978;50.096;8.448;2023-08-17T12:15:44;31.00;99.90
31387;DHT22;69978;50.096;8.448;2023-08-17T12:18:10;31.10;99.90
31387;DHT22;69978;50.096;8.448;2023-08-17T12:20:35;31.20;99.90
31387;DHT22;69978;50.096;8.448;2023-08-17T12:23:02;31.10;99.90
31387;DHT22;69978;50.096;8.448;2023-08-17T12:25:28;31.00;99.90
31387;DHT22;69978;50.096;8.448;2023-08-17T12:27:54;31.10;99.90
31387;DHT22;69978;50.096;8.448;2023-08-17T12:30:31;31.10;99.90
31387;DHT22;69978;50.096;8.448;2023-08-17T12:32:58;31.20;99.90
31387;DHT22;69978;50.096;8.448;2023-08-17T12:35:25;31.30;99.90
31387;DHT22;69978;50.096;8.448;2023-08-17T12:37:54;31.20;99.90
31387;DHT22;69978;50.096;8.448;2023-08-17T12:40:20;31.00;99.90
31387;DHT22;69978;50.096;8.448;2023-08-17T12:42:46;31.00;99.90
31387;DHT22;69978;50.096;8.448;2023-08-17T12:45:12;30.90;99.90
31387;DHT22;69978;50.096;8.448;2023-08-17T12:47:37;31.00;99.90
31387;DHT22;69978;50.096;8.448;2023-08-17T12:50:04;31.00;99.90
31387;DHT22;69978;50.096;8.448;2023-08-17T12:52:31;31.00;99.90
31387;DHT22;69978;50.096;8.448;2023-08-17T12:54:56;30.60;99.90
31387;DHT22;69978;50.096;8.448;2023-08-17T12:57:22;30.60;99.90
31387;DHT22;69978;50.096;8.448;2023-08-17T12:59:48;30.60;99.90
31387;DHT22;69978;50.096;8.448;2023-08-17T13:02:13;30.60;99.90
31387;DHT22;69978;50.096;8.448;2023-08-17T13:04:40;30.50;99.90
31387;DHT22;69978;50.096;8.448;2023-08-17T13:07:05;30.60;99.90
31387;DHT22;69978;50.096;8.448;2023-08-17T13:09:31;30.70;99.90
31387;DHT22;69978;50.096;8.448;2023-08-17T13:11:56;30.70;99.90
31387;DHT22;69978;50.096;8.448;2023-08-17T13:14:22;30.70;99.90
31387;DHT22;69978;50.096;8.448;2023-08-17T13:16:49;30.50;99.90
31387;DHT22;69978;50.096;8.448;2023-08-17T13:19:15;30.20;99.90
31387;DHT22;69978;50.096;8.448;2023-08-17T13:21:40;30.10;99.90
31387;DHT22;69978;50.096;8.448;2023-08-17T13:24:06;29.90;99.90
31387;DHT22;69978;50.096;8.448;2023-08-17T13:26:32;29.80;99.90
31387;DHT22;69978;50.096;8.448;2023-08-17T13:28:58;29.60;99.90
31387;DHT22;69978;50.096;8.448;2023-08-17T13:31:23;29.50;99.90
31387;DHT22;69978;50.096;8.448;2023-08-17T13:33:49;29.50;99.90
31387;DHT22;69978;50.096;8.448;2023-08-17T13:36:14;29.50;99.90
31387;DHT22;69978;50.096;8.448;2023-08-17T13:38:40;29.60;99.90
31387;DHT22;69978;50.096;8.448;2023-08-17T13:41:06;29.60;99.90
31387;DHT22;69978;50.096;8.448;2023-08-17T13:43:31;29.60;99.90
31387;DHT22;69978;50.096;8.448;2023-08-17T13:45:59;29.50;99.90
31387;DHT22;69978;50.096;8.448;2023-08-17T13:48:24;29.30;99.90
31387;DHT22;69978;50.096;8.448;2023-08-17T13:50:50;29.20;99.90
31387;DHT22;69978;50.096;8.448;2023-08-17T13:53:16;29.20;99.90
31387;DHT22;69978;50.096;8.448;2023-08-17T13:55:42;29.10;99.90
31387;DHT22;69978;50.096;8.448;2023-08-17T13:58:07;29.00;99.90
31387;DHT22;69978;50.096;8.448;2023-08-17T14:00:35;28.90;99.90
31387;DHT22;69978;50.096;8.448;2023-08-17T14:03:01;28.90;99.90
31387;DHT22;69978;50.096;8.448;2023-08-17T14:05:27;29.00;99.90
31387;DHT22;69978;50.096;8.448;2023-08-17T14:07:55;29.10;99.90
31387;DHT22;69978;50.096;8.448;2023-08-17T14:10:23;29.20;99.90
31387;DHT22;69978;50.096;8.448;2023-08-17T14:12:48;29.30;99.90
31387;DHT22;69978;50.096;8.448;2023-08-17T14:15:14;29.50;99.90
31387;DHT22;69978;50.096;8.448;2023-08-17T14:17:39;29.50;99.90
31387;DHT22;69978;50.096;8.448;2023-08-17T14:20:05;29.60;99.90
31387;DHT22;69978;50.096;8.448;2023-08-17T14:22:31;29.50;99.90
31387;DHT22;69978;50.096;8.448;2023-08-17T14:24:57;29.60;99.90
31387;DHT22;69978;50.096;8.448;2023-08-17T14:27:25;29.50;99.90
31387;DHT22;69978;50.096;8.448;2023-08-17T14:29:52;29.50;99.90
31387;DHT22;69978;50.096;8.448;2023-08-17T14:32:17;29.40;99.90
31387;DHT22;69978;50.096;8.448;2023-08-17T14:34:43;29.40;99.90
31387;DHT22;69978;50.096;8.448;2023-08-17T14:37:08;29.50;99.90
31387;DHT22;69978;50.096;8.448;2023-08-17T14:39:34;29.60;99.90
31387;DHT22;69978;50.096;8.448;2023-08-17T14:41:59;29.70;99.90
31387;DHT22;69978;50.096;8.448;2023-08-17T14:44:25;29.80;99.90
31387;DHT22;69978;50.096;8.448;2023-08-17T14:46:51;29.80;99.90
31387;DHT22;69978;50.096;8.448;2023-08-17T14:49:17;29.90;99.90
31387;DHT22;69978;50.096;8.448;2023-08-17T14:51:42;29.90;99.90
31387;DHT22;69978;50.096;8.448;2023-08-17T14:54:08;29.80;99.90
31387;DHT22;69978;50.096;8.448;2023-08-17T15:01:29;29.70;99.90
31387;DHT22;69978;50.096;8.448;2023-08-17T15:03:55;29.60;99.90
31387;DHT22;69978;50.096;8.448;2023-08-17T15:06:22;29.50;99.90
31387;DHT22;69978;50.096;8.448;2023-08-17T15:08:51;29.30;99.90
31387;DHT22;69978;50.096;8.448;2023-08-17T15:11:17;29.30;99.90
31387;DHT22;69978;50.096;8.448;2023-08-17T15:13:42;29.20;99.90
31387;DHT22;69978;50.096;8.448;2023-08-17T15:16:08;29.10;99.90
31387;DHT22;69978;50.096;8.448;2023-08-17T15:18:34;29.00;99.90
31387;DHT22;69978;50.096;8.448;2023-08-17T15:21:00;28.90;99.90
31387;DHT22;69978;50.096;8.448;2023-08-17T15:23:25;28.70;99.90
31387;DHT22;69978;50.096;8.448;2023-08-17T15:25:51;28.70;99.90
31387;DHT22;69978;50.096;8.448;2023-08-17T15:28:16;28.60;99.90
31387;DHT22;69978;50.096;8.448;2023-08-17T15:30:43;28.60;99.90
31387;DHT22;69978;50.096;8.448;2023-08-17T15:33:09;28.50;99.90
31387;DHT22;69978;50.096;8.448;2023-08-17T15:35:34;28.40;99.90
31387;DHT22;69978;50.096;8.448;2023-08-17T15:38:00;28.40;99.90
31387;DHT22;69978;50.096;8.448;2023-08-17T15:40:25;28.30;99.90
31387;DHT22;69978;50.096;8.448;2023-08-17T15:42:51;28.30;99.90
31387;DHT22;69978;50.096;8.448;2023-08-17T15:45:16;28.20;99.90